2000 PAUL (2000102S13127)


On this page: IBTrACS data - Map and Plots - Positions - Intensities - Original source data

Summary

Start Apr 11
End Apr 21
Basin SI
LMI 130 kt
Sources jtwc_sh
bom
neumann
In WMO? Yes
Previous storm 2000 1319992000 (SI)
Previous in basin 2000 1319992000 (SI)
Concurrent storms 2000 1319992000 (SI)
2000 PAUL (SI)
2000 INNOCENTE (SI)
2000 NEIL (SP)
2000 ROSITA (SI)
Next in basin 2000 INNOCENTE (SI)
Next storm 2000 INNOCENTE (SI)

top of page IBTrACS Data: File Access

top of page HURSAT Data: File Access

Image of storm

top of page Plots:

Map of storm track will not appear if FTP is down
Time series of cyclone Maximum Sustained Wind will not appear if FTP is down
Time series of cyclone Minimum Central Pressure will not appear if FTP is down

top of page Track Data:Position

jtwc_sh bom neumann
Date Lat Lon Lat Lon Lat Lon
2000-04-11 00:00:00 -13.1 127.4 -13.0 127.1 -13.1 127.4
2000-04-11 06:00:00 -12.9 125.6 -13.0 126.0 -12.9 125.6
2000-04-11 12:00:00 -13.0 124.4 -13.0 124.7 -13.0 124.4
2000-04-11 18:00:00 -13.2 122.9 -13.0 123.1 -13.2 122.9
2000-04-12 00:00:00 -13.3 120.8 -13.0 121.3 -13.3 120.8
2000-04-12 06:00:00 -13.0 118.9 -13.3 119.4 -13.0 118.9
2000-04-12 12:00:00 -12.9 117.4 -13.5 117.7 -12.9 117.4
2000-04-12 18:00:00 -13.1 115.9 -13.7 116.0 -13.1 115.9
2000-04-13 00:00:00 -13.8 114.3 -13.9 114.5 -13.8 114.3
2000-04-13 06:00:00 -14.0 113.1 -14.1 113.0 -14.0 113.1
2000-04-13 12:00:00 -14.5 111.6 -14.6 111.5 -14.5 111.6
2000-04-13 18:00:00 -14.7 110.2 -15.1 110.1 -14.7 110.2
2000-04-14 00:00:00 -14.9 109.0 -15.3 109.1 -14.9 109.0
2000-04-14 06:00:00 -15.0 108.0 -15.1 108.1 -15.0 108.0
2000-04-14 12:00:00 -15.0 107.0 -14.9 107.1 -15.0 107.0
2000-04-14 18:00:00 -14.8 105.9 -14.7 106.2 -14.8 105.9
2000-04-15 00:00:00 -14.5 104.9 -14.5 105.0 -14.5 104.9
2000-04-15 06:00:00 -14.2 103.8 -14.2 103.9 -14.2 103.8
2000-04-15 12:00:00 -13.9 102.8 -14.0 103.0 -13.9 102.8
2000-04-15 18:00:00 -13.7 101.7 -13.6 102.1 -13.7 101.7
2000-04-16 00:00:00 -13.7 100.9 -13.6 101.2 -13.7 100.9
2000-04-16 06:00:00 -13.7 100.1 -13.6 100.4 -13.7 100.1
2000-04-16 12:00:00 -13.8 99.4 -13.7 99.6 -13.8 99.4
2000-04-16 18:00:00 -13.9 98.8 -13.8 98.7 -13.9 98.8
2000-04-17 00:00:00 -14.0 98.0 -13.8 98.0 -14.0 98.0
jtwc_sh bom neumann
2000-04-17 06:00:00 -14.1 97.4 -14.1 97.4 -14.1 97.4
2000-04-17 12:00:00 -14.3 96.7 -14.5 96.9 -14.3 96.7
2000-04-17 18:00:00 -14.5 96.4 -14.6 96.4 -14.5 96.4
2000-04-18 00:00:00 -14.6 96.1 -14.5 95.9 -14.6 96.1
2000-04-18 06:00:00 -14.6 95.9 -14.6 95.6 -14.6 95.9
2000-04-18 12:00:00 -14.6 95.7 -14.7 95.4 -14.6 95.7
2000-04-18 18:00:00 -14.6 95.5 -14.8 95.3 -14.6 95.5
2000-04-19 00:00:00 -14.7 95.3 -14.9 95.3 -14.7 95.3
2000-04-19 06:00:00 -14.7 95.2 -15.0 95.1 -14.7 95.2
2000-04-19 12:00:00 -14.7 95.1 -15.1 95.0 -14.7 95.1
2000-04-19 18:00:00 -14.7 94.9 -15.0 94.9 -14.7 94.9
2000-04-20 00:00:00 -14.7 94.6 -14.9 94.6 -14.7 94.6
2000-04-20 06:00:00 -14.8 94.2 -14.9 94.4 -14.8 94.2
2000-04-20 12:00:00 -14.9 93.8 -14.9 93.8
2000-04-20 18:00:00 -15.0 93.4 -15.0 93.4
2000-04-21 00:00:00 -15.1 93.0 -15.1 93.0
2000-04-21 06:00:00 -15.2 92.3 -15.2 92.3
2000-04-21 12:00:00 -15.3 91.6 -15.3 91.6
2000-04-21 18:00:00 -15.4 90.9 -15.4 90.9

top of pageTrack Data:Intensity

jtwc_sh bom neumann
Date Wind Pres Wind Pres Wind Pres
2000-04-11 00:00:00 20. 27. 1000. 20.
2000-04-11 06:00:00 25. 27. 1000. 25.
2000-04-11 12:00:00 25. 27. 1000. 25.
2000-04-11 18:00:00 25. 27. 1000. 25.
2000-04-12 00:00:00 25. 27. 1000. 25.
2000-04-12 06:00:00 25. 27. 1000. 25.
2000-04-12 12:00:00 25. 35. 995. 25.
2000-04-12 18:00:00 30. 35. 995. 30.
2000-04-13 00:00:00 30. 41. 990. 30.
2000-04-13 06:00:00 35. 41. 990. 35.
2000-04-13 12:00:00 40. 54. 980. 40.
2000-04-13 18:00:00 50. 64. 970. 50.
2000-04-14 00:00:00 60. 76. 960. 60.
2000-04-14 06:00:00 70. 80. 955. 70.
2000-04-14 12:00:00 90. 93. 940. 90.
2000-04-14 18:00:00 100. 101. 930. 100.
2000-04-15 00:00:00 110. 107. 920. 110.
2000-04-15 06:00:00 125. 111. 915. 125.
2000-04-15 12:00:00 125. 111. 915. 125.
2000-04-15 18:00:00 125. 111. 915. 125.
2000-04-16 00:00:00 125. 107. 920. 125.
2000-04-16 06:00:00 130. 101. 930. 130.
2000-04-16 12:00:00 125. 93. 940. 125.
2000-04-16 18:00:00 125. 84. 950. 125.
2000-04-17 00:00:00 120. 80. 955. 120.
jtwc_sh bom neumann
2000-04-17 06:00:00 115. 80. 955. 115.
2000-04-17 12:00:00 115. 80. 955. 115.
2000-04-17 18:00:00 110. 80. 955. 110.
2000-04-18 00:00:00 105. 80. 955. 105.
2000-04-18 06:00:00 100. 80. 955. 100.
2000-04-18 12:00:00 95. 80. 955. 95.
2000-04-18 18:00:00 95. 80. 955. 95.
2000-04-19 00:00:00 90. 70. 965. 90.
2000-04-19 06:00:00 80. 70. 965. 80.
2000-04-19 12:00:00 65. 60. 975. 65.
2000-04-19 18:00:00 65. 49. 985. 65.
2000-04-20 00:00:00 55. 49. 985. 55.
2000-04-20 06:00:00 50. 41. 990. 50.
2000-04-20 12:00:00 45. 45.
2000-04-20 18:00:00 35. 35.
2000-04-21 00:00:00 35. 35.
2000-04-21 06:00:00 35. 35.
2000-04-21 12:00:00 35. 35.
2000-04-21 18:00:00 25. 25.

top of page Links to source data

Source Source file Format
jtwc_sh bsh242000.txt ATCF
bom Newcyclonedatabase-08repair.csv:Line=19622:PAUL CSV file (from Excel file)
neumann tracks.sh:Storm=1200:PAUL:24S:BSH242000 HURDAT